Time;durP1;ratioP1;P1;durP2;ratioP2;P2;SDS_P1;SDS_P2;PMS_P1;PMS_P2;Temp;Humidity;BMP_temperature;BMP_pressure;BME280_temperature;BME280_humidity;BME280_pressure;Samples;Min_cycle;Max_cycle;Signal;HPM_P1;HPM_P2
2023/04/29 00:02:01;;;;;;;31.50;19.60;;;10.90;99.90;;;;;;6179470;23;20079;-79
2023/04/29 00:04:27;;;;;;;41.97;21.20;;;10.90;99.90;;;;;;6177564;23;20025;-79
2023/04/29 00:06:53;;;;;;;29.85;18.45;;;10.90;99.90;;;;;;6178967;23;20318;-79
2023/04/29 00:09:20;;;;;;;35.95;21.05;;;10.90;99.90;;;;;;6179387;23;20480;-79
2023/04/29 00:11:46;;;;;;;33.90;20.02;;;10.90;99.90;;;;;;6179529;23;20072;-80
2023/04/29 00:14:12;;;;;;;35.00;20.70;;;10.90;99.90;;;;;;6177768;23;20368;-79
2023/04/29 00:16:38;;;;;;;32.58;19.38;;;10.90;99.90;;;;;;6176724;23;20024;-79
2023/04/29 00:19:04;;;;;;;35.67;19.60;;;10.90;99.90;;;;;;6179300;23;20084;-80
2023/04/29 00:21:30;;;;;;;35.60;20.98;;;10.90;99.90;;;;;;6179577;23;20017;-80
2023/04/29 00:23:56;;;;;;;40.78;20.75;;;10.80;99.90;;;;;;6179031;23;20028;-80
2023/04/29 00:26:22;;;;;;;29.50;18.17;;;10.80;99.90;;;;;;6179716;23;20017;-79
2023/04/29 00:28:48;;;;;;;37.15;20.80;;;10.80;99.90;;;;;;6177590;23;20071;-80
2023/04/29 00:31:14;;;;;;;32.80;19.40;;;10.80;99.90;;;;;;6179011;23;20021;-79
2023/04/29 00:33:39;;;;;;;27.88;17.55;;;10.80;99.90;;;;;;6179800;23;20101;-79
2023/04/29 00:36:06;;;;;;;28.73;18.08;;;10.70;99.90;;;;;;6179364;23;20032;-79
2023/04/29 00:38:32;;;;;;;32.50;17.65;;;10.60;99.90;;;;;;6177140;23;20025;-80
2023/04/29 00:40:57;;;;;;;29.17;16.58;;;10.50;99.90;;;;;;6177140;23;20055;-79
2023/04/29 00:43:23;;;;;;;30.35;18.52;;;10.60;99.90;;;;;;6181208;23;20040;-79
2023/04/29 00:45:49;;;;;;;32.03;18.92;;;10.50;99.90;;;;;;6181101;23;20077;-80
2023/04/29 00:48:16;;;;;;;32.25;19.63;;;10.60;99.90;;;;;;6179106;23;20643;-80
2023/04/29 00:50:42;;;;;;;29.95;18.63;;;10.50;99.90;;;;;;6179524;23;20017;-80
2023/04/29 00:53:11;;;;;;;35.85;19.63;;;10.50;99.90;;;;;;6179382;23;20325;-80
2023/04/29 00:55:38;;;;;;;31.55;19.88;;;10.60;99.90;;;;;;6181039;23;20017;-79
2023/04/29 00:58:03;;;;;;;28.88;17.92;;;10.60;99.90;;;;;;6178534;23;20778;-80
2023/04/29 01:00:29;;;;;;;29.15;19.13;;;10.50;99.90;;;;;;6178916;23;20025;-80
2023/04/29 01:02:56;;;;;;;27.05;18.20;;;10.50;99.90;;;;;;6179048;23;20021;-80
2023/04/29 01:05:23;;;;;;;34.10;18.58;;;10.50;99.90;;;;;;6178825;23;20404;-80
2023/04/29 01:08:01;;;;;;;32.38;17.85;;;10.40;99.90;;;;;;6181232;23;20342;-80
2023/04/29 01:10:29;;;;;;;30.17;17.10;;;10.50;99.90;;;;;;6179442;23;20028;-80
2023/04/29 01:13:10;;;;;;;28.52;18.92;;;10.50;99.90;;;;;;6178981;23;20031;-80
2023/04/29 01:15:53;;;;;;;33.08;19.42;;;10.50;99.90;;;;;;6179828;23;20123;-79
2023/04/29 01:18:23;;;;;;;29.75;18.23;;;10.50;99.90;;;;;;6181361;23;20576;-78
2023/04/29 01:20:49;;;;;;;31.35;18.05;;;10.40;99.90;;;;;;6179608;23;20025;-80
2023/04/29 01:23:15;;;;;;;33.30;19.08;;;10.50;99.90;;;;;;6180657;23;20072;-80
2023/04/29 01:25:42;;;;;;;32.42;17.48;;;10.50;99.90;;;;;;6178900;23;20052;-80
2023/04/29 01:28:40;;;;;;;30.58;19.00;;;10.50;99.90;;;;;;6176998;23;20459;-80
2023/04/29 01:31:24;;;;;;;31.85;18.63;;;10.40;99.90;;;;;;6178526;23;20111;-80
2023/04/29 01:33:58;;;;;;;32.25;19.60;;;10.40;99.90;;;;;;6180656;23;20040;-80
2023/04/29 01:36:30;;;;;;;31.60;18.17;;;10.50;99.90;;;;;;6181349;23;20029;-80
2023/04/29 01:39:20;;;;;;;32.95;18.35;;;10.40;99.90;;;;;;6181262;23;20017;-80
2023/04/29 01:42:04;;;;;;;27.13;17.63;;;10.40;99.90;;;;;;6180779;23;20686;-80
2023/04/29 01:44:32;;;;;;;29.40;17.67;;;10.50;99.90;;;;;;6181266;23;20028;-80
2023/04/29 01:47:00;;;;;;;38.13;18.63;;;10.40;99.90;;;;;;6178951;23;20385;-80
2023/04/29 01:49:28;;;;;;;30.33;17.63;;;10.50;99.90;;;;;;6180635;23;20471;-79
2023/04/29 01:51:54;;;;;;;35.70;18.58;;;10.40;99.90;;;;;;6179712;23;20057;-80
2023/04/29 01:54:21;;;;;;;34.28;18.27;;;10.30;99.90;;;;;;6180022;23;20025;-80
2023/04/29 01:56:47;;;;;;;36.75;19.10;;;10.40;99.90;;;;;;6180742;23;20142;-80
2023/04/29 01:59:13;;;;;;;32.97;18.52;;;10.30;99.90;;;;;;6180232;23;20131;-81
2023/04/29 02:01:38;;;;;;;38.80;20.85;;;10.30;99.90;;;;;;6178084;23;20045;-80
2023/04/29 02:04:04;;;;;;;30.42;18.65;;;10.20;99.90;;;;;;6178483;23;20753;-80
2023/04/29 02:06:31;;;;;;;36.50;18.10;;;10.30;99.90;;;;;;6178574;23;20024;-81
2023/04/29 02:08:57;;;;;;;35.90;19.00;;;10.20;99.90;;;;;;6179322;23;20124;-79
2023/04/29 02:11:23;;;;;;;34.25;17.70;;;10.30;99.90;;;;;;6182478;23;20065;-80
2023/04/29 02:13:49;;;;;;;32.05;17.48;;;10.30;99.90;;;;;;6154697;23;20061;-79
2023/04/29 02:16:15;;;;;;;35.85;17.70;;;10.20;99.90;;;;;;6178669;23;20128;-80
2023/04/29 02:18:41;;;;;;;33.15;19.13;;;10.20;99.90;;;;;;6178311;23;20115;-80
2023/04/29 02:21:07;;;;;;;34.67;19.08;;;10.20;99.90;;;;;;6180787;23;20016;-81
2023/04/29 02:23:34;;;;;;;35.40;19.83;;;10.20;99.90;;;;;;6178680;23;20068;-81
2023/04/29 02:26:00;;;;;;;38.22;22.08;;;10.20;99.90;;;;;;6180600;23;20023;-81
2023/04/29 02:28:26;;;;;;;38.90;21.42;;;10.10;99.90;;;;;;6154731;23;20104;-81
2023/04/29 02:30:52;;;;;;;44.20;20.75;;;10.10;99.90;;;;;;6179012;23;20040;-81
2023/04/29 02:33:17;;;;;;;41.53;22.02;;;10.10;99.90;;;;;;6178718;23;20231;-81
2023/04/29 02:35:43;;;;;;;40.33;20.70;;;10.10;99.90;;;;;;6178773;23;20589;-80
2023/04/29 02:38:10;;;;;;;44.58;20.92;;;10.10;99.90;;;;;;6179171;23;20029;-81
2023/04/29 02:40:43;;;;;;;36.08;19.58;;;10.10;99.90;;;;;;6181116;23;20013;-81
2023/04/29 02:43:10;;;;;;;48.33;22.25;;;10.10;99.90;;;;;;6179217;23;20483;-81
2023/04/29 02:45:37;;;;;;;34.13;19.08;;;10.10;99.90;;;;;;6179868;23;20016;-79
2023/04/29 02:48:04;;;;;;;35.72;20.25;;;10.10;99.90;;;;;;6181673;23;20016;-79
2023/04/29 02:50:29;;;;;;;38.45;20.23;;;10.10;99.90;;;;;;6181148;23;20017;-80
2023/04/29 02:52:56;;;;;;;38.17;18.50;;;10.10;99.90;;;;;;6180848;23;20017;-80
2023/04/29 02:55:22;;;;;;;34.67;17.35;;;10.10;99.90;;;;;;6180271;23;20021;-80
2023/04/29 02:57:47;;;;;;;32.10;18.38;;;10.10;99.90;;;;;;6178886;23;20110;-79
2023/04/29 03:00:13;;;;;;;35.15;18.08;;;10.00;99.90;;;;;;6154107;23;20099;-80
2023/04/29 03:02:39;;;;;;;30.92;17.42;;;10.00;99.90;;;;;;6178829;23;20021;-80
2023/04/29 03:05:05;;;;;;;34.42;18.05;;;10.00;99.90;;;;;;6178554;23;20047;-80
2023/04/29 03:07:31;;;;;;;36.97;17.20;;;10.10;99.90;;;;;;6178719;23;20159;-80
2023/04/29 03:09:57;;;;;;;29.50;16.23;;;10.10;99.90;;;;;;6178447;23;20025;-80
2023/04/29 03:12:23;;;;;;;29.05;16.05;;;10.00;99.90;;;;;;6180770;23;20693;-80
2023/04/29 03:14:48;;;;;;;30.92;16.67;;;10.00;99.90;;;;;;6180492;23;20375;-80
2023/04/29 03:17:14;;;;;;;24.73;16.00;;;10.00;99.90;;;;;;6180351;23;20021;-80
2023/04/29 03:19:40;;;;;;;30.27;17.13;;;10.00;99.90;;;;;;6178640;23;20600;-81
2023/04/29 03:22:10;;;;;;;28.90;16.00;;;10.00;99.90;;;;;;6178197;23;20020;-80
2023/04/29 03:24:37;;;;;;;31.77;15.25;;;10.00;99.90;;;;;;6180118;23;20027;-81
2023/04/29 03:27:03;;;;;;;30.50;16.13;;;10.00;99.90;;;;;;6178165;23;20032;-81
2023/04/29 03:29:30;;;;;;;27.58;15.43;;;9.90;99.90;;;;;;6178607;23;20420;-80
2023/04/29 03:31:56;;;;;;;27.42;15.38;;;9.90;99.90;;;;;;6153884;23;20079;-80
2023/04/29 03:34:23;;;;;;;27.48;15.77;;;9.90;99.90;;;;;;6177699;23;20025;-81
2023/04/29 03:36:50;;;;;;;25.90;15.02;;;9.90;99.90;;;;;;6180208;23;20087;-80
2023/04/29 03:39:16;;;;;;;31.77;15.38;;;9.90;99.90;;;;;;6179973;23;20021;-81
2023/04/29 03:41:42;;;;;;;24.73;13.95;;;9.90;99.90;;;;;;6179609;23;20753;-81
2023/04/29 03:44:08;;;;;;;29.80;14.75;;;9.90;99.90;;;;;;6177738;23;20032;-81
2023/04/29 03:46:34;;;;;;;25.95;14.30;;;9.90;99.90;;;;;;6178432;23;20049;-81
2023/04/29 03:49:00;;;;;;;27.95;14.15;;;9.90;99.90;;;;;;6129071;23;20039;-80
2023/04/29 03:51:26;;;;;;;30.60;15.55;;;9.80;99.90;;;;;;6178375;23;20025;-81
2023/04/29 03:53:55;;;;;;;24.55;15.13;;;9.80;99.90;;;;;;6178182;23;20017;-81
2023/04/29 03:56:21;;;;;;;26.17;14.98;;;9.80;99.90;;;;;;6178231;23;20448;-80
2023/04/29 03:58:47;;;;;;;25.75;14.88;;;9.80;99.90;;;;;;6180272;23;20013;-80
2023/04/29 04:01:14;;;;;;;29.02;14.27;;;9.80;99.90;;;;;;6179823;23;20021;-81
2023/04/29 04:03:42;;;;;;;29.65;14.30;;;9.80;99.90;;;;;;6178099;23;20112;-81
2023/04/29 04:06:07;;;;;;;26.95;13.13;;;9.80;99.90;;;;;;6180469;23;20025;-81
2023/04/29 04:08:33;;;;;;;24.38;13.50;;;9.80;99.90;;;;;;6178498;23;20091;-81
2023/04/29 04:11:02;;;;;;;22.95;13.82;;;9.80;99.90;;;;;;6178574;23;20443;-81
2023/04/29 04:13:31;;;;;;;27.35;14.65;;;9.80;99.90;;;;;;6178127;23;20524;-80
2023/04/29 04:15:57;;;;;;;22.02;13.55;;;9.80;99.90;;;;;;6180037;23;20017;-81
2023/04/29 04:18:23;;;;;;;29.08;14.52;;;9.80;99.90;;;;;;6179849;23;20032;-81
2023/04/29 04:20:48;;;;;;;22.98;13.90;;;9.80;99.90;;;;;;6180754;23;20035;-81
2023/04/29 04:23:14;;;;;;;22.95;14.25;;;9.80;99.90;;;;;;6180225;23;20028;-81
2023/04/29 04:25:47;;;;;;;28.73;14.45;;;9.80;99.90;;;;;;6180766;23;20708;-80
2023/04/29 04:28:13;;;;;;;25.92;12.93;;;9.80;99.90;;;;;;6182615;23;20044;-81
2023/04/29 04:30:39;;;;;;;26.52;14.32;;;9.70;99.90;;;;;;6179889;23;20047;-81
2023/04/29 04:33:05;;;;;;;28.52;15.13;;;9.80;99.90;;;;;;6181845;23;20036;-81
2023/04/29 04:35:31;;;;;;;22.80;13.57;;;9.70;99.90;;;;;;6182108;23;20021;-81
2023/04/29 04:37:57;;;;;;;24.67;13.55;;;9.70;99.90;;;;;;6182188;23;20479;-80
2023/04/29 04:40:23;;;;;;;24.20;13.88;;;9.70;99.90;;;;;;6181680;23;20449;-81
2023/04/29 04:42:49;;;;;;;29.08;13.82;;;9.70;99.90;;;;;;6180286;23;20067;-80
2023/04/29 04:45:15;;;;;;;24.25;13.98;;;9.70;99.90;;;;;;6180033;23;20068;-80
2023/04/29 04:47:41;;;;;;;27.63;15.15;;;9.60;99.90;;;;;;6180027;23;20042;-80
2023/04/29 04:50:07;;;;;;;27.70;14.32;;;9.60;99.90;;;;;;6181735;23;20048;-80
2023/04/29 04:52:33;;;;;;;25.60;14.02;;;9.70;99.90;;;;;;6182015;23;20021;-80
2023/04/29 04:54:59;;;;;;;26.35;13.80;;;9.60;99.90;;;;;;6181562;23;20033;-79
2023/04/29 04:57:26;;;;;;;27.23;14.30;;;9.60;99.90;;;;;;6179465;23;20036;-80
2023/04/29 04:59:51;;;;;;;30.33;15.40;;;9.60;99.90;;;;;;6181923;23;20021;-80
2023/04/29 05:02:17;;;;;;;25.48;12.82;;;9.60;99.90;;;;;;6180029;23;20058;-80
2023/04/29 05:04:43;;;;;;;28.40;14.00;;;9.70;99.90;;;;;;6181062;23;20027;-80
2023/04/29 05:07:09;;;;;;;27.25;13.85;;;9.60;99.90;;;;;;6181126;23;20032;-80
2023/04/29 05:09:36;;;;;;;33.30;14.80;;;9.60;99.90;;;;;;6179238;23;20028;-80
2023/04/29 05:12:01;;;;;;;27.23;14.38;;;9.60;99.90;;;;;;6181290;23;20036;-80
2023/04/29 05:14:27;;;;;;;30.45;13.80;;;9.50;99.90;;;;;;6181764;23;20092;-81
2023/04/29 05:16:58;;;;;;;26.27;13.35;;;9.60;99.90;;;;;;6179525;23;20052;-80
2023/04/29 05:19:23;;;;;;;24.08;13.07;;;9.60;99.90;;;;;;6178300;23;20445;-80
2023/04/29 05:21:49;;;;;;;25.27;12.75;;;9.60;99.90;;;;;;6181398;23;20025;-79
2023/04/29 05:24:15;;;;;;;25.25;13.77;;;9.60;99.90;;;;;;6178822;23;20715;-79
2023/04/29 05:26:42;;;;;;;30.35;14.05;;;9.60;99.90;;;;;;6179582;23;20404;-80
2023/04/29 05:29:09;;;;;;;23.98;13.48;;;9.50;99.90;;;;;;6154657;23;20124;-81
2023/04/29 05:31:35;;;;;;;24.10;14.60;;;9.60;99.90;;;;;;6181340;23;20496;-81
2023/04/29 05:34:01;;;;;;;30.25;15.93;;;9.60;99.90;;;;;;6178995;23;20119;-80
2023/04/29 05:36:27;;;;;;;25.10;13.00;;;9.60;99.90;;;;;;6179320;23;20737;-80
2023/04/29 05:38:53;;;;;;;25.55;13.07;;;9.50;99.90;;;;;;6179445;23;20051;-80
2023/04/29 05:41:19;;;;;;;24.45;12.30;;;9.50;99.90;;;;;;6179180;23;20029;-81
2023/04/29 05:43:45;;;;;;;25.75;13.07;;;9.50;99.90;;;;;;6179257;23;20021;-81
2023/04/29 05:46:11;;;;;;;24.00;12.52;;;9.50;99.90;;;;;;6179225;23;20070;-81
2023/04/29 05:48:36;;;;;;;23.77;12.10;;;9.60;99.90;;;;;;6180761;23;20042;-82
2023/04/29 05:51:02;;;;;;;20.35;11.63;;;9.60;99.90;;;;;;6181442;23;20009;-81
2023/04/29 05:53:28;;;;;;;26.15;12.93;;;9.60;99.90;;;;;;6154095;23;20028;-82
2023/04/29 05:55:53;;;;;;;24.38;11.60;;;9.50;99.90;;;;;;6178594;23;20024;-82
2023/04/29 05:58:19;;;;;;;21.52;11.43;;;9.60;99.90;;;;;;6154550;23;20369;-82
2023/04/29 06:00:48;;;;;;;21.98;11.52;;;9.60;99.90;;;;;;6179329;23;20021;-83
2023/04/29 06:03:13;;;;;;;17.35;10.50;;;9.60;99.90;;;;;;6179079;23;20017;-82
2023/04/29 06:05:39;;;;;;;26.90;12.30;;;9.60;99.90;;;;;;6180377;23;20021;-82
2023/04/29 06:08:05;;;;;;;19.50;11.45;;;9.60;99.90;;;;;;6180955;23;20024;-81
2023/04/29 06:10:32;;;;;;;23.75;10.93;;;9.60;99.90;;;;;;6180460;23;20595;-83
2023/04/29 06:12:58;;;;;;;22.98;12.07;;;9.60;99.90;;;;;;6179497;23;20021;-84
2023/04/29 06:15:23;;;;;;;19.40;10.18;;;9.60;99.90;;;;;;6180974;23;20027;-83
2023/04/29 06:17:49;;;;;;;24.75;11.23;;;9.60;99.90;;;;;;6179834;23;20028;-84
2023/04/29 06:20:15;;;;;;;23.77;11.73;;;9.70;99.90;;;;;;6179766;23;20394;-84
2023/04/29 06:22:40;;;;;;;21.27;9.43;;;9.60;99.90;;;;;;6155394;23;20025;-84
2023/04/29 06:25:06;;;;;;;18.30;10.20;;;9.60;99.90;;;;;;6180274;23;20021;-85
2023/04/29 06:27:32;;;;;;;25.65;11.65;;;9.70;99.90;;;;;;6182462;23;20013;-85
2023/04/29 06:29:58;;;;;;;16.50;9.77;;;9.70;99.90;;;;;;6179725;23;20437;-85
2023/04/29 06:32:23;;;;;;;19.30;10.98;;;9.70;99.90;;;;;;6178917;23;20036;-85
2023/04/29 06:34:50;;;;;;;22.17;10.80;;;9.70;99.90;;;;;;6180799;23;20120;-84
2023/04/29 06:37:15;;;;;;;22.08;10.52;;;9.70;99.90;;;;;;6179864;23;20333;-85
2023/04/29 06:39:41;;;;;;;23.20;10.38;;;9.70;99.90;;;;;;6178796;23;20101;-84
2023/04/29 06:42:07;;;;;;;22.10;10.35;;;9.80;99.90;;;;;;6180553;23;20025;-84
2023/04/29 06:44:33;;;;;;;20.42;9.93;;;9.80;99.90;;;;;;6178962;23;20646;-84
2023/04/29 06:46:58;;;;;;;20.55;10.98;;;9.80;99.90;;;;;;6180690;23;20013;-82
2023/04/29 06:49:24;;;;;;;18.02;10.23;;;9.80;99.90;;;;;;6181685;23;20374;-83
2023/04/29 06:51:50;;;;;;;20.70;10.20;;;9.80;99.90;;;;;;6179538;23;20071;-83
2023/04/29 06:54:15;;;;;;;19.13;10.23;;;9.80;99.90;;;;;;6180819;23;20024;-82
2023/04/29 06:56:41;;;;;;;16.65;9.88;;;9.90;99.90;;;;;;6180581;23;20047;-83
2023/04/29 06:59:07;;;;;;;17.75;9.63;;;9.90;99.90;;;;;;6180562;23;20028;-83
2023/04/29 07:01:33;;;;;;;17.92;10.30;;;9.90;99.90;;;;;;6180607;23;20017;-83
2023/04/29 07:03:59;;;;;;;15.82;9.60;;;9.90;99.90;;;;;;6180841;23;20116;-83
2023/04/29 07:06:24;;;;;;;16.27;9.40;;;10.00;99.90;;;;;;6180651;23;20539;-84
2023/04/29 07:08:51;;;;;;;21.02;10.85;;;10.10;99.90;;;;;;6154521;23;20092;-83
2023/04/29 07:11:16;;;;;;;18.30;10.02;;;10.10;99.90;;;;;;6179123;23;20025;-82
2023/04/29 07:13:42;;;;;;;17.38;9.55;;;10.20;99.90;;;;;;6179411;23;20057;-83
2023/04/29 07:16:16;;;;;;;19.17;10.57;;;10.20;99.90;;;;;;6154409;23;20120;-82
2023/04/29 07:18:42;;;;;;;18.65;9.73;;;10.20;99.90;;;;;;6181018;23;20452;-82
2023/04/29 07:21:08;;;;;;;17.30;9.70;;;10.30;99.90;;;;;;6178699;23;20107;-82
2023/04/29 07:23:34;;;;;;;20.05;9.63;;;10.40;99.90;;;;;;6180793;23;20096;-82
2023/04/29 07:26:09;;;;;;;13.50;8.55;;;10.40;99.90;;;;;;6181312;23;20021;-74
2023/04/29 07:28:34;;;;;;;17.83;8.57;;;10.50;99.90;;;;;;6177287;23;20020;-73
2023/04/29 07:31:00;;;;;;;15.70;8.25;;;10.50;99.90;;;;;;6177267;23;20021;-74
2023/04/29 07:33:26;;;;;;;14.77;8.52;;;10.60;99.90;;;;;;6176534;23;20376;-74
2023/04/29 07:35:51;;;;;;;15.07;8.15;;;10.60;99.90;;;;;;6178954;23;20012;-74
2023/04/29 07:38:17;;;;;;;17.27;8.48;;;10.60;99.90;;;;;;6177483;23;20120;-74
2023/04/29 07:40:43;;;;;;;15.13;8.57;;;10.70;99.90;;;;;;6177176;23;20052;-74
2023/04/29 07:43:09;;;;;;;15.65;8.07;;;10.80;99.90;;;;;;6178321;23;20052;-76
2023/04/29 07:45:35;;;;;;;19.20;9.23;;;10.80;99.90;;;;;;6178646;23;20047;-74
2023/04/29 07:48:01;;;;;;;14.98;8.73;;;10.80;99.90;;;;;;6176789;23;20017;-75
2023/04/29 07:50:27;;;;;;;15.07;8.43;;;10.90;99.90;;;;;;6152167;23;20445;-75
2023/04/29 07:52:54;;;;;;;15.20;7.97;;;10.90;99.90;;;;;;6180112;23;20068;-76
2023/04/29 07:55:20;;;;;;;15.13;7.95;;;10.90;99.90;;;;;;6180650;23;20119;-76
2023/04/29 07:57:45;;;;;;;11.13;7.65;;;11.00;99.90;;;;;;6178691;23;20102;-75
2023/04/29 08:00:11;;;;;;;13.35;7.63;;;11.00;99.90;;;;;;6178293;23;20025;-75
2023/04/29 08:02:37;;;;;;;16.48;8.18;;;11.20;99.90;;;;;;6178745;23;20325;-75
2023/04/29 08:05:03;;;;;;;16.48;8.65;;;11.20;99.90;;;;;;6178271;23;20032;-76
2023/04/29 08:07:29;;;;;;;17.77;8.73;;;11.30;99.90;;;;;;6180636;23;20025;-76
2023/04/29 08:09:54;;;;;;;14.38;7.90;;;11.40;99.90;;;;;;6179155;23;20029;-76
2023/04/29 08:12:20;;;;;;;16.02;7.57;;;11.50;99.90;;;;;;6179535;23;20047;-77
2023/04/29 08:14:45;;;;;;;12.68;7.15;;;11.60;99.90;;;;;;6181039;23;20087;-77
2023/04/29 08:17:11;;;;;;;17.40;7.38;;;11.70;99.90;;;;;;6154443;23;20033;-77
2023/04/29 08:19:37;;;;;;;14.70;7.20;;;11.80;99.90;;;;;;6181924;23;20021;-78
2023/04/29 08:22:03;;;;;;;11.88;6.82;;;12.00;99.90;;;;;;6180363;23;20025;-77
2023/04/29 08:24:29;;;;;;;14.13;8.20;;;12.00;99.90;;;;;;6181767;23;20029;-77
2023/04/29 08:26:54;;;;;;;13.38;8.25;;;12.10;99.90;;;;;;6179554;23;20025;-77
2023/04/29 08:29:20;;;;;;;13.90;8.43;;;12.10;99.90;;;;;;6179176;23;20017;-77
2023/04/29 08:31:46;;;;;;;14.65;6.93;;;12.20;99.90;;;;;;6181476;23;20041;-77
2023/04/29 08:34:12;;;;;;;11.88;6.90;;;12.30;99.90;;;;;;6181140;23;20441;-77
2023/04/29 08:36:37;;;;;;;14.60;7.18;;;12.40;99.90;;;;;;6181800;23;20024;-77
2023/04/29 08:39:03;;;;;;;10.65;6.38;;;12.40;99.90;;;;;;6181110;23;20032;-76
2023/04/29 08:41:32;;;;;;;11.80;6.80;;;12.40;99.90;;;;;;6181681;23;20373;-77
2023/04/29 08:43:59;;;;;;;11.48;7.18;;;12.50;99.90;;;;;;6154385;23;20025;-78
2023/04/29 08:46:26;;;;;;;11.25;6.80;;;12.50;99.90;;;;;;6181540;23;20025;-77
2023/04/29 08:48:52;;;;;;;11.50;7.18;;;12.40;99.90;;;;;;6179748;23;20048;-78
2023/04/29 08:51:17;;;;;;;10.60;7.10;;;12.50;99.90;;;;;;6181709;23;20394;-78
2023/04/29 08:53:43;;;;;;;13.18;6.57;;;12.50;99.90;;;;;;6179804;23;20028;-78
2023/04/29 08:56:16;;;;;;;9.57;6.28;;;12.60;99.90;;;;;;6179697;23;20051;-78
2023/04/29 08:58:43;;;;;;;11.43;6.70;;;12.50;99.90;;;;;;6155424;23;20025;-82
2023/04/29 09:01:09;;;;;;;11.05;6.53;;;12.70;99.90;;;;;;6180489;23;20053;-82
2023/04/29 09:04:02;;;;;;;12.52;6.95;;;12.70;99.90;;;;;;6180624;23;20302;-82
2023/04/29 09:06:31;;;;;;;12.00;6.97;;;12.70;99.90;;;;;;6169874;23;20563;-81
2023/04/29 09:08:59;;;;;;;12.85;6.43;;;12.90;99.90;;;;;;6180658;23;20271;-82
2023/04/29 09:11:26;;;;;;;11.63;6.05;;;12.90;99.90;;;;;;6180266;23;20386;-81
2023/04/29 09:13:59;;;;;;;12.52;6.55;;;12.90;99.90;;;;;;6182791;23;20040;-81
2023/04/29 09:16:24;;;;;;;10.13;6.13;;;12.90;99.90;;;;;;6182755;23;20083;-83
2023/04/29 09:18:51;;;;;;;12.38;6.80;;;13.00;99.90;;;;;;6182598;23;20017;-82
2023/04/29 09:21:18;;;;;;;9.32;5.38;;;13.00;99.90;;;;;;6178972;23;20017;-81
2023/04/29 09:23:46;;;;;;;11.35;5.63;;;13.00;99.90;;;;;;6181198;23;20750;-82
2023/04/29 09:26:12;;;;;;;10.70;5.55;;;13.00;99.90;;;;;;6180977;23;20059;-82
2023/04/29 09:28:43;;;;;;;9.32;6.20;;;12.90;99.90;;;;;;6182516;23;20021;-82
2023/04/29 09:31:10;;;;;;;7.68;5.65;;;12.80;99.90;;;;;;6180316;23;20040;-82
2023/04/29 09:33:53;;;;;;;10.55;6.00;;;12.80;99.90;;;;;;6180288;23;20052;-82
2023/04/29 09:36:37;;;;;;;8.82;4.97;;;12.80;99.90;;;;;;6181821;23;20017;-82
2023/04/29 09:39:13;;;;;;;7.22;5.18;;;12.90;99.90;;;;;;6181920;23;20021;-81
2023/04/29 09:41:58;;;;;;;9.95;6.60;;;13.10;99.90;;;;;;6179035;23;20052;-82
2023/04/29 09:44:30;;;;;;;7.68;5.55;;;13.20;99.90;;;;;;6154814;23;20023;-82
2023/04/29 09:47:01;;;;;;;;;;;13.30;99.90;;;;;;6180576;23;20112;-82
2023/04/29 09:49:29;;;;;;;7.70;5.10;;;13.30;99.90;;;;;;6179791;23;19992;-81
2023/04/29 09:52:00;;;;;;;7.30;4.40;;;13.40;99.90;;;;;;6181867;23;20017;-82
2023/04/29 09:54:27;;;;;;;7.50;5.43;;;13.40;99.90;;;;;;6179265;23;20025;-81
2023/04/29 09:56:54;;;;;;;12.68;5.70;;;13.50;99.90;;;;;;6179020;23;20029;-81
2023/04/29 09:59:21;;;;;;;11.18;5.85;;;13.60;99.90;;;;;;6179729;23;20131;-82
2023/04/29 10:01:52;;;;;;;11.73;6.80;;;13.70;99.90;;;;;;6179676;23;20056;-82
2023/04/29 10:04:20;;;;;;;15.20;6.65;;;13.70;99.90;;;;;;6181967;23;20092;-82
2023/04/29 10:06:49;;;;;;;9.25;5.85;;;13.70;99.90;;;;;;6182299;23;20370;-81
2023/04/29 10:09:17;;;;;;;11.38;6.40;;;13.60;99.90;;;;;;6181489;23;20371;-82
2023/04/29 10:11:44;;;;;;;6.03;4.75;;;13.60;99.90;;;;;;6180034;23;20090;-82
2023/04/29 10:14:32;;;;;;;8.52;5.15;;;13.60;99.90;;;;;;6179668;23;20033;-82
2023/04/29 10:17:08;;;;;;;6.25;4.80;;;13.70;99.90;;;;;;6179581;23;20027;-81
2023/04/29 10:19:38;;;;;;;8.68;5.45;;;13.90;99.90;;;;;;6181039;23;20076;-81
2023/04/29 10:22:11;;;;;;;8.82;5.38;;;14.10;99.90;;;;;;6181317;23;20013;-82
2023/04/29 10:24:38;;;;;;;10.32;5.43;;;14.00;99.90;;;;;;6179145;23;20087;-81
2023/04/29 10:27:11;;;;;;;10.50;5.30;;;13.80;99.90;;;;;;6181313;23;20324;-81
2023/04/29 10:29:38;;;;;;;8.90;4.72;;;13.80;99.90;;;;;;6179435;23;20024;-81
2023/04/29 10:32:08;;;;;;;11.25;5.85;;;14.00;99.90;;;;;;6179335;23;20101;-81
2023/04/29 10:34:36;;;;;;;10.30;5.28;;;14.00;99.90;;;;;;6179253;23;20036;-81
2023/04/29 10:37:02;;;;;;;11.20;6.00;;;14.10;99.90;;;;;;6179545;23;20330;-81
2023/04/29 10:40:16;;;;;;;12.10;5.60;;;14.20;99.90;;;;;;6180987;23;20023;-81
2023/04/29 10:42:52;;;;;;;10.63;5.32;;;14.20;99.90;;;;;;6159379;23;20055;-82
2023/04/29 10:45:30;;;;;;;8.32;5.15;;;14.20;99.90;;;;;;6180361;23;20021;-82
2023/04/29 10:48:05;;;;;;;6.97;4.55;;;14.10;99.90;;;;;;6178491;23;20091;-81
2023/04/29 10:50:44;;;;;;;6.55;4.72;;;14.10;99.90;;;;;;6177568;23;20631;-79
2023/04/29 10:53:10;;;;;;;7.60;4.20;;;14.10;99.90;;;;;;6180494;23;20083;-80
2023/04/29 10:55:37;;;;;;;10.48;5.60;;;14.40;99.90;;;;;;6178401;23;20028;-80
2023/04/29 10:58:04;;;;;;;7.07;4.97;;;14.50;99.90;;;;;;6180685;23;20025;-80
2023/04/29 11:00:34;;;;;;;11.75;4.82;;;14.60;99.90;;;;;;6179673;23;20101;-80
2023/04/29 11:03:04;;;;;;;7.25;4.85;;;14.70;99.90;;;;;;6176092;23;20071;-80
2023/04/29 11:05:31;;;;;;;6.88;4.60;;;14.70;99.90;;;;;;6179776;23;20051;-81
2023/04/29 11:08:15;;;;;;;7.88;4.78;;;14.60;99.90;;;;;;6178925;23;20020;-80
2023/04/29 11:10:42;;;;;;;10.13;4.70;;;14.70;99.90;;;;;;6181173;23;20063;-79
2023/04/29 11:13:25;;;;;;;7.25;5.05;;;14.50;99.90;;;;;;6180607;23;20009;-80
2023/04/29 11:16:27;;;;;;;7.72;4.53;;;14.30;99.90;;;;;;6181196;23;20108;-79
2023/04/29 11:19:15;;;;;;;7.60;4.60;;;14.50;99.90;;;;;;6164423;23;20025;-80
2023/04/29 11:21:41;;;;;;;8.10;4.63;;;14.50;99.90;;;;;;6181081;23;20016;-79
2023/04/29 11:24:07;;;;;;;10.65;4.32;;;14.30;99.90;;;;;;6179661;23;20094;-79
2023/04/29 11:26:36;;;;;;;9.50;4.95;;;14.40;99.90;;;;;;6180555;23;20013;-78
2023/04/29 11:29:03;;;;;;;7.82;4.80;;;14.50;99.90;;;;;;6179175;23;20464;-78
2023/04/29 11:31:32;;;;;;;7.25;4.45;;;14.40;99.90;;;;;;6178544;23;20028;-78
2023/04/29 11:33:59;;;;;;;6.15;3.50;;;14.30;99.90;;;;;;6178546;23;20021;-80
2023/04/29 11:36:26;;;;;;;7.95;3.95;;;14.40;99.90;;;;;;6178702;23;20044;-83
2023/04/29 11:38:52;;;;;;;8.27;4.70;;;14.50;99.90;;;;;;6178751;23;20048;-83
2023/04/29 11:41:20;;;;;;;6.40;3.95;;;14.30;99.90;;;;;;6180523;23;20021;-83
2023/04/29 11:43:46;;;;;;;7.05;3.72;;;14.40;99.90;;;;;;6178228;23;20708;-82
2023/04/29 11:46:13;;;;;;;5.13;2.97;;;14.40;99.90;;;;;;6178578;23;20020;-83
2023/04/29 11:48:48;;;;;;;9.02;3.92;;;14.40;99.90;;;;;;6178656;23;20105;-83
2023/04/29 11:51:16;;;;;;;9.05;3.90;;;14.50;99.90;;;;;;6178550;23;20105;-83
2023/04/29 11:53:42;;;;;;;9.82;4.35;;;14.50;99.90;;;;;;6178282;23;20025;-82
2023/04/29 11:56:09;;;;;;;5.43;3.65;;;14.50;99.90;;;;;;6179673;23;20101;-79
2023/04/29 11:58:36;;;;;;;6.05;3.33;;;14.50;99.90;;;;;;6179264;23;20338;-79
2023/04/29 12:01:04;;;;;;;6.15;4.13;;;14.60;99.90;;;;;;6179044;23;20027;-79
2023/04/29 12:03:35;;;;;;;6.70;4.05;;;14.60;99.90;;;;;;6178791;23;20096;-79
2023/04/29 12:06:01;;;;;;;6.20;4.35;;;14.80;99.90;;;;;;6177082;23;20087;-79
2023/04/29 12:08:28;;;;;;;7.57;4.10;;;14.90;99.90;;;;;;6176254;23;20027;-82
2023/04/29 12:10:56;;;;;;;6.72;4.20;;;14.90;99.90;;;;;;6153026;23;20028;-83
2023/04/29 12:13:29;;;;;;;5.68;4.15;;;15.00;99.90;;;;;;6178124;23;20035;-82
2023/04/29 12:15:56;;;;;;;6.90;4.13;;;14.90;99.90;;;;;;6180881;23;20043;-82
2023/04/29 12:18:23;;;;;;;5.30;3.65;;;15.10;99.90;;;;;;6178241;23;20476;-82
2023/04/29 12:20:54;;;;;;;5.85;3.70;;;15.10;99.90;;;;;;6178249;23;20017;-82
2023/04/29 12:23:22;;;;;;;6.50;3.50;;;15.30;99.90;;;;;;6178499;23;20329;-82
2023/04/29 12:25:56;;;;;;;7.32;3.97;;;15.30;99.90;;;;;;6180223;23;20028;-83
2023/04/29 12:28:23;;;;;;;6.18;3.70;;;15.40;99.90;;;;;;6178844;23;20029;-83
2023/04/29 12:30:50;;;;;;;9.32;5.38;;;15.40;99.90;;;;;;6179476;23;20020;-83
2023/04/29 12:33:20;;;;;;;5.95;4.13;;;15.30;99.90;;;;;;6179287;23;20044;-83
2023/04/29 12:35:48;;;;;;;9.95;4.10;;;15.20;99.90;;;;;;6179963;23;20040;-83
2023/04/29 12:38:27;;;;;;;7.53;3.50;;;15.10;99.90;;;;;;6178937;23;20479;-83
2023/04/29 12:40:54;;;;;;;6.30;3.53;;;15.10;99.90;;;;;;6179875;23;20075;-83